Terminal Aerodrome Forecast
Issued by NWS Houston/Galveston, TX

Home | Current Version | Previous Version | Text Only | Print | Product List | Glossary On
Versions: 1 2 3 4 5 6 7 8 9 10 11 12 13 14 15 16 17 18 19 20 21 22
000
FTUS44 KHGX 261955 AAA
TAFGLS
TAF AMD
KGLS 261955Z 2620/2718 21012KT P6SM -RA VCSH FEW019 SCT025 OVC070
     FM262200 19010KT P6SM FEW035 BKN100
     FM270300 20010KT P6SM BKN250
     FM270900 21010KT P6SM VCTS BKN025CB PROB30 2709/2713 TSRA=

USA.gov is the U.S. government's official web portal to all federal, state and local government web resources and services.